Time;durP1;ratioP1;P1;durP2;ratioP2;P2;SDS_P1;SDS_P2;PMS_P1;PMS_P2;Temp;Humidity;BMP_temperature;BMP_pressure;BME280_temperature;BME280_humidity;BME280_pressure;Samples;Min_cycle;Max_cycle;Signal;HPM_P1;HPM_P2
2021/11/11 00:02:04;;;;;;;34.43;13.73;;;;;;;;;;5030499;28;20074;-83
2021/11/11 00:04:30;;;;;;;38.07;14.87;;;;;;;;;;5031787;28;20018;-83
2021/11/11 00:06:59;;;;;;;36.43;13.77;;;;;;;;;;5031480;28;20025;-83
2021/11/11 00:09:25;;;;;;;40.33;14.10;;;;;;;;;;5031657;28;20025;-83
2021/11/11 00:11:50;;;;;;;33.97;14.73;;;;;;;;;;5031628;28;20195;-83
2021/11/11 00:14:15;;;;;;;45.27;16.37;;;;;;;;;;5031306;28;20017;-83
2021/11/11 00:16:41;;;;;;;35.50;14.90;;;;;;;;;;5031470;28;20025;-83
2021/11/11 00:19:06;;;;;;;32.30;13.80;;;;;;;;;;5031839;28;20041;-83
2021/11/11 00:21:31;;;;;;;36.80;14.97;;;;;;;;;;5031780;28;20040;-83
2021/11/11 00:23:57;;;;;;;35.37;15.10;;;;;;;;;;5030980;28;20487;-83
2021/11/11 00:26:22;;;;;;;40.27;16.00;;;;;;;;;;5032432;28;20025;-83
2021/11/11 00:28:49;;;;;;;32.53;14.43;;;;;;;;;;5032436;28;20086;-83
2021/11/11 00:31:14;;;;;;;35.43;14.57;;;;;;;;;;5030911;28;20025;-83
2021/11/11 00:33:39;;;;;;;32.70;14.70;;;;;;;;;;5031055;28;20022;-83
2021/11/11 00:36:05;;;;;;;34.60;15.00;;;;;;;;;;5031164;28;20022;-83
2021/11/11 00:38:30;;;;;;;39.23;14.80;;;;;;;;;;5030937;28;20389;-83
2021/11/11 00:40:55;;;;;;;33.80;13.70;;;;;;;;;;5030963;28;20059;-83
2021/11/11 00:43:21;;;;;;;30.67;13.67;;;;;;;;;;5031147;28;20036;-83
2021/11/11 00:45:46;;;;;;;37.07;14.57;;;;;;;;;;5032413;28;20034;-83
2021/11/11 00:48:11;;;;;;;32.93;13.90;;;;;;;;;;5030786;28;20075;-83
2021/11/11 00:50:37;;;;;;;37.07;15.00;;;;;;;;;;5032445;28;20013;-83
2021/11/11 00:53:06;;;;;;;41.37;15.07;;;;;;;;;;5031154;28;20029;-83
2021/11/11 00:55:32;;;;;;;44.50;15.20;;;;;;;;;;5031204;28;20799;-83
2021/11/11 00:57:59;;;;;;;33.50;13.47;;;;;;;;;;5031289;28;20029;-83
2021/11/11 01:00:24;;;;;;;39.83;14.33;;;;;;;;;;5031960;28;20465;-83
2021/11/11 01:02:51;;;;;;;39.57;14.80;;;;;;;;;;5031076;28;20029;-82
2021/11/11 01:05:16;;;;;;;32.77;13.90;;;;;;;;;;5030491;28;20029;-83
2021/11/11 01:07:42;;;;;;;34.23;13.47;;;;;;;;;;5030849;28;20075;-83
2021/11/11 01:10:08;;;;;;;39.93;14.80;;;;;;;;;;5031098;28;20536;-83
2021/11/11 01:12:34;;;;;;;35.77;14.70;;;;;;;;;;5030715;28;20424;-83
2021/11/11 01:14:59;;;;;;;30.70;13.73;;;;;;;;;;5031907;28;20033;-82
2021/11/11 01:17:24;;;;;;;38.40;15.27;;;;;;;;;;5031930;28;20075;-83
2021/11/11 01:19:50;;;;;;;39.80;16.37;;;;;;;;;;5032354;28;20377;-83
2021/11/11 01:22:15;;;;;;;50.10;17.20;;;;;;;;;;5030792;28;20029;-83
2021/11/11 01:24:40;;;;;;;38.33;15.90;;;;;;;;;;5030873;28;20025;-82
2021/11/11 01:27:05;;;;;;;37.30;15.30;;;;;;;;;;5030432;28;20029;-83
2021/11/11 01:29:31;;;;;;;35.50;13.33;;;;;;;;;;5030499;28;20029;-82
2021/11/11 01:31:56;;;;;;;39.70;14.10;;;;;;;;;;5030803;28;20052;-83
2021/11/11 01:34:26;;;;;;;36.20;13.63;;;;;;;;;;5030613;28;20683;-83
2021/11/11 01:36:51;;;;;;;39.40;14.73;;;;;;;;;;5030848;28;20056;-83
2021/11/11 01:39:16;;;;;;;35.80;14.23;;;;;;;;;;5034335;28;20065;-83
2021/11/11 01:41:45;;;;;;;38.23;14.13;;;;;;;;;;5034360;28;20116;-83
2021/11/11 01:44:12;;;;;;;42.20;13.90;;;;;;;;;;5034309;28;20021;-83
2021/11/11 01:46:37;;;;;;;35.80;14.30;;;;;;;;;;5034217;28;20591;-83
2021/11/11 01:49:02;;;;;;;39.67;14.00;;;;;;;;;;5034160;28;20022;-83
2021/11/11 01:51:30;;;;;;;36.47;14.40;;;;;;;;;;5033310;28;20385;-83
2021/11/11 01:53:55;;;;;;;37.90;13.57;;;;;;;;;;5034206;28;20047;-83
2021/11/11 01:56:22;;;;;;;29.40;12.90;;;;;;;;;;5034085;28;20420;-83
2021/11/11 01:58:47;;;;;;;40.50;14.30;;;;;;;;;;5035288;28;20049;-83
2021/11/11 02:01:13;;;;;;;35.87;15.03;;;;;;;;;;5033943;28;20064;-83
2021/11/11 02:03:38;;;;;;;31.03;13.83;;;;;;;;;;5033897;28;20530;-83
2021/11/11 02:06:03;;;;;;;31.90;13.20;;;;;;;;;;5033955;28;20029;-83
2021/11/11 02:08:28;;;;;;;33.20;13.73;;;;;;;;;;5035066;28;20070;-82
2021/11/11 02:10:54;;;;;;;36.77;14.50;;;;;;;;;;5035225;28;20071;-83
2021/11/11 02:13:19;;;;;;;31.93;13.43;;;;;;;;;;5033694;28;20076;-83
2021/11/11 02:15:44;;;;;;;34.83;13.03;;;;;;;;;;5034818;28;20026;-83
2021/11/11 02:18:10;;;;;;;34.37;13.90;;;;;;;;;;5033875;28;20025;-83
2021/11/11 02:20:37;;;;;;;37.33;13.67;;;;;;;;;;5033660;28;20447;-83
2021/11/11 02:23:04;;;;;;;29.23;13.00;;;;;;;;;;5033966;28;20033;-82
2021/11/11 02:25:29;;;;;;;37.13;13.30;;;;;;;;;;5033277;28;20017;-83
2021/11/11 02:27:59;;;;;;;31.53;12.57;;;;;;;;;;5034791;28;20045;-83
2021/11/11 02:30:25;;;;;;;28.67;13.17;;;;;;;;;;5034550;28;20132;-83
2021/11/11 02:32:50;;;;;;;34.33;13.30;;;;;;;;;;5033621;28;20052;-83
2021/11/11 02:35:17;;;;;;;35.27;13.67;;;;;;;;;;5033373;28;20103;-82
2021/11/11 02:37:42;;;;;;;34.03;13.27;;;;;;;;;;5034638;28;20619;-83
2021/11/11 02:40:19;;;;;;;24.97;12.70;;;;;;;;;;5033506;28;20079;-83
2021/11/11 02:42:46;;;;;;;30.93;11.60;;;;;;;;;;5034129;28;20068;-83
2021/11/11 02:45:13;;;;;;;31.73;13.40;;;;;;;;;;5033191;28;20174;-83
2021/11/11 02:47:39;;;;;;;37.80;12.90;;;;;;;;;;5033325;28;20033;-83
2021/11/11 02:50:04;;;;;;;31.10;13.40;;;;;;;;;;5032840;28;20132;-83
2021/11/11 02:52:30;;;;;;;34.93;14.90;;;;;;;;;;5032988;28;20033;-83
2021/11/11 02:54:55;;;;;;;38.73;15.03;;;;;;;;;;5032659;28;20540;-83
2021/11/11 02:57:25;;;;;;;37.07;15.20;;;;;;;;;;5033044;28;20032;-83
2021/11/11 02:59:53;;;;;;;38.23;14.63;;;;;;;;;;5036941;28;20032;-83
2021/11/11 03:02:20;;;;;;;39.03;13.97;;;;;;;;;;5040515;28;20041;-83
2021/11/11 03:04:45;;;;;;;36.50;13.97;;;;;;;;;;5042446;28;20017;-83
2021/11/11 03:07:10;;;;;;;35.67;14.00;;;;;;;;;;5040376;28;20079;-83
2021/11/11 03:09:36;;;;;;;36.90;13.57;;;;;;;;;;5037292;28;20021;-83
2021/11/11 03:12:01;;;;;;;31.73;13.87;;;;;;;;;;5039787;28;20778;-80
2021/11/11 03:14:26;;;;;;;36.00;13.53;;;;;;;;;;5036501;28;20599;-83
2021/11/11 03:16:51;;;;;;;35.93;14.13;;;;;;;;;;5038154;28;20021;-83
2021/11/11 03:19:17;;;;;;;33.10;14.20;;;;;;;;;;5041684;28;20028;-83
2021/11/11 03:21:44;;;;;;;33.23;13.27;;;;;;;;;;5036677;28;20108;-83
2021/11/11 03:24:09;;;;;;;31.77;13.43;;;;;;;;;;5039789;28;20129;-82
2021/11/11 03:26:37;;;;;;;30.83;12.87;;;;;;;;;;5036199;28;20483;-83
2021/11/11 03:29:02;;;;;;;30.33;13.87;;;;;;;;;;5038430;28;20025;-83
2021/11/11 03:31:27;;;;;;;36.63;13.97;;;;;;;;;;5035109;28;20036;-83
2021/11/11 03:33:53;;;;;;;36.63;14.90;;;;;;;;;;5037516;28;20017;-83
2021/11/11 03:36:18;;;;;;;34.47;14.07;;;;;;;;;;5042705;28;20056;-83
2021/11/11 03:38:43;;;;;;;32.73;13.23;;;;;;;;;;5036381;28;20024;-83
2021/11/11 03:41:09;;;;;;;31.67;14.20;;;;;;;;;;5039662;28;20492;-83
2021/11/11 03:43:34;;;;;;;37.03;14.90;;;;;;;;;;5036042;28;20022;-83
2021/11/11 03:46:00;;;;;;;33.80;14.33;;;;;;;;;;5038435;28;20499;-83
2021/11/11 03:48:25;;;;;;;30.13;13.07;;;;;;;;;;5036324;28;20021;-83
2021/11/11 03:50:50;;;;;;;33.00;14.13;;;;;;;;;;5037441;28;20023;-83
2021/11/11 03:53:16;;;;;;;34.67;13.30;;;;;;;;;;5035604;28;20614;-83
2021/11/11 03:55:41;;;;;;;38.30;13.27;;;;;;;;;;5037299;28;20049;-83
2021/11/11 03:58:07;;;;;;;38.87;14.33;;;;;;;;;;5041005;28;20029;-83
2021/11/11 04:00:32;;;;;;;36.57;14.30;;;;;;;;;;5035987;28;20037;-83
2021/11/11 04:02:57;;;;;;;30.13;13.10;;;;;;;;;;5039029;28;20037;-83
2021/11/11 04:05:22;;;;;;;32.17;13.30;;;;;;;;;;5037274;28;20025;-83
2021/11/11 04:07:48;;;;;;;31.30;13.50;;;;;;;;;;5038139;28;20036;-83
2021/11/11 04:10:13;;;;;;;33.07;13.40;;;;;;;;;;5033592;28;20107;-83
2021/11/11 04:12:38;;;;;;;33.90;13.20;;;;;;;;;;5035904;28;20120;-83
2021/11/11 04:15:04;;;;;;;32.87;14.87;;;;;;;;;;5039881;28;20056;-83
2021/11/11 04:17:30;;;;;;;41.10;15.63;;;;;;;;;;5035480;28;20029;-83
2021/11/11 04:19:55;;;;;;;34.60;14.20;;;;;;;;;;5038072;28;20033;-83
2021/11/11 04:22:20;;;;;;;32.27;13.13;;;;;;;;;;5036296;28;20024;-83
2021/11/11 04:24:46;;;;;;;35.07;13.83;;;;;;;;;;5036948;28;20544;-83
2021/11/11 04:27:38;;;;;;;31.53;13.60;;;;;;;;;;5034143;28;20043;-83
2021/11/11 04:30:15;;;;;;;38.23;14.33;;;;;;;;;;5037488;28;20035;-83
2021/11/11 04:32:40;;;;;;;34.87;14.57;;;;;;;;;;5033628;28;20026;-83
2021/11/11 04:35:06;;;;;;;35.83;15.63;;;;;;;;;;5035964;28;20140;-83
2021/11/11 04:37:41;;;;;;;39.63;16.13;;;;;;;;;;5039131;28;20694;-83
2021/11/11 04:43:08;;;;;;;35.07;15.20;;;;;;;;;;5027466;28;20114;-83
2021/11/11 05:01:26;;;;;;;42.40;16.40;;;;;;;;;;5037603;28;20128;-83
2021/11/11 05:03:51;;;;;;;43.60;16.73;;;;;;;;;;5030495;28;20040;-83
2021/11/11 05:06:17;;;;;;;44.80;16.80;;;;;;;;;;5035550;28;20416;-83
2021/11/11 05:08:43;;;;;;;37.73;14.83;;;;;;;;;;5040866;28;20021;-83
2021/11/11 05:11:09;;;;;;;41.47;16.13;;;;;;;;;;5036688;28;20542;-83
2021/11/11 05:13:34;;;;;;;43.53;16.77;;;;;;;;;;5040400;28;20009;-83
2021/11/11 05:16:00;;;;;;;42.43;16.43;;;;;;;;;;5038737;28;20022;-83
2021/11/11 05:18:25;;;;;;;35.57;15.20;;;;;;;;;;5042123;28;20034;-83
2021/11/11 05:20:50;;;;;;;38.33;15.97;;;;;;;;;;5040099;28;20037;-83
2021/11/11 05:23:16;;;;;;;31.10;14.83;;;;;;;;;;5040646;28;20366;-83
2021/11/11 05:25:42;;;;;;;39.20;16.20;;;;;;;;;;5037191;28;20096;-83
2021/11/11 05:28:08;;;;;;;39.93;15.47;;;;;;;;;;5035974;28;20037;-83
2021/11/11 05:30:33;;;;;;;35.50;15.07;;;;;;;;;;5036175;28;20541;-83
2021/11/11 05:32:58;;;;;;;40.90;15.03;;;;;;;;;;5040807;28;20488;-83
2021/11/11 05:35:23;;;;;;;39.93;14.90;;;;;;;;;;5042321;28;20046;-83
2021/11/11 05:37:49;;;;;;;38.10;14.43;;;;;;;;;;5040333;28;20050;-83
2021/11/11 05:40:15;;;;;;;33.43;14.93;;;;;;;;;;5042409;28;20037;-83
2021/11/11 05:42:40;;;;;;;33.73;15.80;;;;;;;;;;5038314;28;20562;-83
2021/11/11 05:45:06;;;;;;;31.10;14.87;;;;;;;;;;5041816;28;20075;-83
2021/11/11 05:47:31;;;;;;;36.67;14.83;;;;;;;;;;5036801;28;20465;-83
2021/11/11 05:49:57;;;;;;;36.67;15.40;;;;;;;;;;5039268;28;20045;-84
2021/11/11 05:52:22;;;;;;;32.40;14.37;;;;;;;;;;5042006;28;20029;-83
2021/11/11 05:54:47;;;;;;;32.77;13.77;;;;;;;;;;5040380;28;20021;-84
2021/11/11 05:57:13;;;;;;;41.50;15.60;;;;;;;;;;5042687;28;20053;-83
2021/11/11 05:59:39;;;;;;;36.07;15.67;;;;;;;;;;5039013;28;20021;-83
2021/11/11 06:02:07;;;;;;;35.50;16.67;;;;;;;;;;5042117;28;20060;-84
2021/11/11 06:04:33;;;;;;;42.87;15.80;;;;;;;;;;5037173;28;20026;-84
2021/11/11 06:06:58;;;;;;;37.13;14.47;;;;;;;;;;5039203;28;21309;-84
2021/11/11 06:09:23;;;;;;;32.70;14.60;;;;;;;;;;5037403;28;20045;-84
2021/11/11 06:11:48;;;;;;;38.17;15.83;;;;;;;;;;5041586;28;20021;-83
2021/11/11 06:14:13;;;;;;;38.23;15.07;;;;;;;;;;5036669;28;20025;-83
2021/11/11 06:16:39;;;;;;;31.47;14.20;;;;;;;;;;5039289;28;20060;-84
2021/11/11 06:19:06;;;;;;;33.73;14.47;;;;;;;;;;5035748;28;20459;-83
2021/11/11 06:21:32;;;;;;;36.70;14.43;;;;;;;;;;5038253;28;20022;-83
2021/11/11 06:23:57;;;;;;;37.70;15.67;;;;;;;;;;5034443;28;20534;-84
2021/11/11 06:26:23;;;;;;;38.27;15.13;;;;;;;;;;5038759;28;20021;-84
2021/11/11 06:28:49;;;;;;;33.60;14.00;;;;;;;;;;5041834;28;20468;-84
2021/11/11 06:31:15;;;;;;;32.60;13.90;;;;;;;;;;5038146;28;20020;-84
2021/11/11 06:33:40;;;;;;;36.20;14.73;;;;;;;;;;5039674;28;20018;-83
2021/11/11 06:36:05;;;;;;;32.83;14.97;;;;;;;;;;5038266;28;20035;-84
2021/11/11 06:38:30;;;;;;;37.07;14.70;;;;;;;;;;5039024;28;20020;-84
2021/11/11 06:40:56;;;;;;;39.00;14.13;;;;;;;;;;5035817;28;20067;-84
2021/11/11 06:43:21;;;;;;;37.20;15.13;;;;;;;;;;5039165;28;20025;-84
2021/11/11 06:45:46;;;;;;;37.23;14.47;;;;;;;;;;5034202;28;20028;-84
2021/11/11 06:48:12;;;;;;;34.00;14.07;;;;;;;;;;5037411;28;20025;-84
2021/11/11 06:50:39;;;;;;;36.10;13.90;;;;;;;;;;5039801;28;20013;-84
2021/11/11 06:53:04;;;;;;;38.87;14.97;;;;;;;;;;5035917;28;20539;-81
2021/11/11 06:55:30;;;;;;;37.40;15.83;;;;;;;;;;5040581;28;20078;-81
2021/11/11 06:57:55;;;;;;;38.53;14.80;;;;;;;;;;5037992;28;20025;-84
2021/11/11 07:00:20;;;;;;;35.27;14.30;;;;;;;;;;5038164;28;20049;-84
2021/11/11 07:02:46;;;;;;;38.23;14.93;;;;;;;;;;5034240;28;20033;-83
2021/11/11 07:05:11;;;;;;;37.00;15.20;;;;;;;;;;5038469;28;20029;-84
2021/11/11 07:07:36;;;;;;;38.13;14.37;;;;;;;;;;4997016;28;1149565;-84
2021/11/11 07:10:02;;;;;;;39.03;14.13;;;;;;;;;;5040470;28;20120;-83
2021/11/11 07:12:27;;;;;;;37.47;14.57;;;;;;;;;;5037754;28;20039;-84
2021/11/11 07:14:53;;;;;;;37.67;15.70;;;;;;;;;;5038517;28;20020;-84
2021/11/11 07:17:18;;;;;;;33.10;14.63;;;;;;;;;;5035799;28;20132;-84
2021/11/11 07:19:43;;;;;;;40.20;16.27;;;;;;;;;;5039519;28;20024;-83
2021/11/11 07:22:08;;;;;;;41.80;15.87;;;;;;;;;;5042732;28;20090;-83
2021/11/11 07:24:34;;;;;;;39.00;15.50;;;;;;;;;;5039006;28;20429;-83
2021/11/11 07:26:59;;;;;;;40.40;15.23;;;;;;;;;;5040649;28;20021;-84
2021/11/11 07:29:24;;;;;;;38.30;16.23;;;;;;;;;;5052558;28;20476;-83
2021/11/11 07:31:54;;;;;;;33.17;14.97;;;;;;;;;;5040636;28;20014;-84
2021/11/11 07:34:19;;;;;;;39.70;16.10;;;;;;;;;;5040726;28;20021;-84
2021/11/11 07:36:45;;;;;;;35.90;15.00;;;;;;;;;;5035566;28;20028;-83
2021/11/11 07:39:11;;;;;;;35.20;14.70;;;;;;;;;;5038999;28;20021;-83
2021/11/11 07:41:37;;;;;;;36.87;15.63;;;;;;;;;;5032344;28;20028;-84
2021/11/11 07:44:03;;;;;;;39.77;16.13;;;;;;;;;;5037544;28;20108;-83
2021/11/11 07:46:28;;;;;;;34.00;15.37;;;;;;;;;;5035838;28;20552;-81
2021/11/11 07:48:53;;;;;;;39.00;14.57;;;;;;;;;;5037060;28;20385;-81
2021/11/11 07:51:18;;;;;;;39.37;15.90;;;;;;;;;;5041711;28;20022;-81
2021/11/11 07:53:44;;;;;;;40.00;14.87;;;;;;;;;;5036738;28;20028;-81
2021/11/11 07:56:09;;;;;;;40.43;16.77;;;;;;;;;;5040274;28;20032;-81
2021/11/11 07:58:34;;;;;;;45.43;17.93;;;;;;;;;;5035840;28;20091;-81
2021/11/11 08:01:00;;;;;;;35.73;15.03;;;;;;;;;;5039026;28;20025;-81
2021/11/11 08:03:25;;;;;;;40.73;15.83;;;;;;;;;;5036793;28;20155;-81
2021/11/11 08:05:50;;;;;;;45.40;17.23;;;;;;;;;;5037495;28;20021;-81
2021/11/11 08:08:16;;;;;;;41.83;17.10;;;;;;;;;;5037464;28;20028;-81
2021/11/11 08:10:41;;;;;;;41.27;15.57;;;;;;;;;;5038968;28;20029;-81
2021/11/11 08:13:06;;;;;;;36.20;14.97;;;;;;;;;;5035589;28;20029;-81
2021/11/11 08:15:32;;;;;;;38.80;17.20;;;;;;;;;;5039051;28;20112;-81
2021/11/11 08:17:58;;;;;;;39.03;15.47;;;;;;;;;;5034389;28;20099;-82
2021/11/11 08:20:24;;;;;;;36.93;15.23;;;;;;;;;;5037417;28;21079;-82
2021/11/11 08:22:49;;;;;;;44.03;16.63;;;;;;;;;;5033872;28;20381;-82
2021/11/11 08:25:16;;;;;;;43.40;16.17;;;;;;;;;;5037322;28;20026;-81
2021/11/11 08:27:42;;;;;;;34.53;15.07;;;;;;;;;;5041348;28;20022;-82
2021/11/11 08:30:09;;;;;;;36.40;15.53;;;;;;;;;;5035576;28;20032;-82
2021/11/11 08:32:34;;;;;;;36.33;14.83;;;;;;;;;;5039787;28;20018;-82
2021/11/11 08:34:59;;;;;;;34.73;15.00;;;;;;;;;;5036556;28;20020;-82
2021/11/11 08:37:25;;;;;;;42.30;16.10;;;;;;;;;;5039044;28;20021;-82
2021/11/11 08:39:50;;;;;;;36.87;16.17;;;;;;;;;;5035771;28;20025;-82
2021/11/11 08:42:16;;;;;;;36.80;15.50;;;;;;;;;;5036669;28;20022;-81
2021/11/11 08:44:45;;;;;;;41.20;15.07;;;;;;;;;;5030676;28;20462;-81
2021/11/11 08:47:11;;;;;;;35.40;14.90;;;;;;;;;;5035145;28;20095;-81
2021/11/11 08:49:36;;;;;;;44.83;17.27;;;;;;;;;;5040425;28;20017;-81
2021/11/11 08:52:02;;;;;;;39.73;16.07;;;;;;;;;;5032684;28;20017;-82
2021/11/11 08:54:27;;;;;;;40.67;15.90;;;;;;;;;;5040264;28;20528;-81
2021/11/11 08:56:53;;;;;;;43.37;16.00;;;;;;;;;;5036141;28;20458;-81
2021/11/11 08:59:19;;;;;;;43.70;14.87;;;;;;;;;;5037819;28;20087;-81
2021/11/11 09:01:45;;;;;;;37.07;14.77;;;;;;;;;;5034037;28;20448;-82
2021/11/11 09:04:11;;;;;;;37.27;14.33;;;;;;;;;;5037571;28;20428;-81
2021/11/11 09:06:36;;;;;;;33.13;14.63;;;;;;;;;;5034416;28;20033;-81
2021/11/11 09:09:03;;;;;;;23.43;10.80;;;;;;;;;;5032605;28;20637;-82
2021/11/11 09:11:28;;;;;;;30.10;11.37;;;;;;;;;;5030912;28;20112;-82
2021/11/11 09:13:53;;;;;;;33.13;11.93;;;;;;;;;;5038810;28;20101;-82
2021/11/11 09:16:19;;;;;;;27.88;10.90;;;;;;;;;;5033554;28;20079;-82
2021/11/11 09:18:44;;;;;;;36.55;11.82;;;;;;;;;;5031250;28;20024;-82
2021/11/11 09:21:10;;;;;;;25.65;11.60;;;;;;;;;;5031465;28;20026;-82
2021/11/11 09:23:36;;;;;;;22.45;10.65;;;;;;;;;;5036513;28;20025;-82
2021/11/11 09:26:02;;;;;;;32.33;12.02;;;;;;;;;;5036903;28;20161;-82
2021/11/11 09:28:28;;;;;;;29.30;11.48;;;;;;;;;;5035612;28;20656;-82
2021/11/11 09:30:53;;;;;;;27.08;10.88;;;;;;;;;;5036818;28;20026;-82
2021/11/11 09:33:18;;;;;;;26.77;10.63;;;;;;;;;;5033896;28;20366;-82
2021/11/11 09:35:44;;;;;;;25.98;11.65;;;;;;;;;;5031557;28;20029;-82
2021/11/11 09:38:09;;;;;;;23.15;11.10;;;;;;;;;;5034564;28;20034;-82
2021/11/11 09:40:35;;;;;;;33.80;12.32;;;;;;;;;;5036538;28;20031;-82
2021/11/11 09:43:01;;;;;;;32.03;12.30;;;;;;;;;;5032312;28;20025;-82
2021/11/11 09:45:28;;;;;;;27.30;12.52;;;;;;;;;;5036103;28;20465;-82
2021/11/11 09:47:54;;;;;;;29.52;12.15;;;;;;;;;;5064795;28;20018;-81
2021/11/11 09:50:20;;;;;;;24.05;10.77;;;;;;;;;;5034514;28;20022;-82
2021/11/11 09:52:47;;;;;;;32.05;13.85;;;;;;;;;;5037946;28;20029;-82
2021/11/11 10:00:42;;;;;;;31.70;11.80;;;;;;;;;;5037956;28;20029;-82
2021/11/11 10:03:07;;;;;;;36.28;12.90;;;;;;;;;;5040266;28;20104;-82
2021/11/11 10:05:33;;;;;;;25.23;11.20;;;;;;;;;;5035794;28;20465;-81
2021/11/11 10:07:59;;;;;;;37.13;13.00;;;;;;;;;;5046300;28;20541;-82
2021/11/11 10:10:30;;;;;;;38.28;14.77;;;;;;;;;;5037202;28;20017;-83
2021/11/11 10:13:10;;;;;;;29.27;12.15;;;;;;;;;;5034635;28;20029;-82
2021/11/11 10:15:55;;;;;;;33.83;11.85;;;;;;;;;;5038149;28;20017;-82
2021/11/11 10:18:39;;;;;;;30.38;12.63;;;;;;;;;;5044266;28;20033;-82
2021/11/11 10:21:38;;;;;;;32.30;13.88;;;;;;;;;;5034722;28;20510;-83
2021/11/11 10:24:15;;;;;;;33.97;13.50;;;;;;;;;;5024997;28;20046;-82
2021/11/11 10:26:42;;;;;;;27.05;12.68;;;;;;;;;;5038925;28;20052;-82
2021/11/11 10:29:30;;;;;;;35.83;12.60;;;;;;;;;;5041499;28;20025;-82
2021/11/11 10:31:57;;;;;;;31.55;13.60;;;;;;;;;;5032718;28;20022;-82
2021/11/11 10:34:22;;;;;;;31.55;13.90;;;;;;;;;;5066560;28;20025;-83
2021/11/11 10:36:49;;;;;;;34.78;13.15;;;;;;;;;;5035032;28;20071;-83
2021/11/11 10:39:33;;;;;;;31.15;12.98;;;;;;;;;;5041614;28;20464;-82
2021/11/11 10:41:59;;;;;;;35.08;12.85;;;;;;;;;;5035465;28;20029;-82
2021/11/11 10:44:30;;;;;;;38.70;16.23;;;;;;;;;;5038219;28;20025;-82
2021/11/11 10:47:00;;;;;;;34.22;12.15;;;;;;;;;;5048363;28;20029;-82
2021/11/11 10:49:41;;;;;;;41.65;15.80;;;;;;;;;;5040132;28;20032;-82
2021/11/11 10:52:20;;;;;;;41.25;16.60;;;;;;;;;;5033727;28;20034;-82
2021/11/11 10:55:15;;;;;;;41.53;15.88;;;;;;;;;;5036123;28;20025;-82
2021/11/11 10:57:43;;;;;;;31.50;13.75;;;;;;;;;;5049081;28;20059;-82
2021/11/11 11:00:14;;;;;;;35.20;13.57;;;;;;;;;;5031995;28;20171;-83
2021/11/11 11:03:00;;;;;;;34.53;12.83;;;;;;;;;;5040924;28;20161;-82
2021/11/11 11:05:35;;;;;;;38.70;16.17;;;;;;;;;;5029053;28;20762;-82
2021/11/11 11:08:05;;;;;;;32.28;14.95;;;;;;;;;;5041114;28;20074;-82
2021/11/11 11:10:31;;;;;;;43.53;16.23;;;;;;;;;;5031543;28;20108;-82
2021/11/11 11:12:57;;;;;;;45.47;16.98;;;;;;;;;;5035016;28;20099;-82
2021/11/11 11:15:36;;;;;;;38.08;16.70;;;;;;;;;;5035998;28;20476;-82
2021/11/11 11:18:01;;;;;;;36.38;14.02;;;;;;;;;;5036468;28;20820;-82
2021/11/11 11:20:28;;;;;;;34.45;14.38;;;;;;;;;;5036314;28;20053;-82
2021/11/11 11:23:14;;;;;;;31.38;12.63;;;;;;;;;;5034300;28;20021;-82
2021/11/11 11:25:47;;;;;;;38.53;12.98;;;;;;;;;;5036675;28;20468;-82
2021/11/11 11:28:23;;;;;;;30.98;13.43;;;;;;;;;;5033547;28;20031;-82
2021/11/11 11:30:51;;;;;;;33.83;12.77;;;;;;;;;;5038885;28;20155;-82
2021/11/11 11:33:19;;;;;;;27.02;12.32;;;;;;;;;;5032285;28;20036;-82
2021/11/11 11:35:45;;;;;;;30.10;13.20;;;;;;;;;;5035768;28;20135;-82
2021/11/11 11:38:26;;;;;;;33.50;14.23;;;;;;;;;;5041615;28;20064;-85
2021/11/11 11:40:51;;;;;;;37.75;12.90;;;;;;;;;;5035889;28;20026;-85
2021/11/11 11:43:31;;;;;;;32.10;12.80;;;;;;;;;;5037820;28;20071;-85
2021/11/11 11:46:15;;;;;;;28.25;11.90;;;;;;;;;;5034656;28;20115;-85
2021/11/11 11:48:41;;;;;;;33.33;13.45;;;;;;;;;;5036523;28;20025;-85
2021/11/11 11:51:08;;;;;;;33.53;13.35;;;;;;;;;;5035915;28;20477;-85
2021/11/11 11:53:39;;;;;;;29.55;13.32;;;;;;;;;;5033927;28;20016;-83
2021/11/11 11:56:12;;;;;;;33.70;15.02;;;;;;;;;;5035869;28;20083;-84
2021/11/11 11:58:42;;;;;;;36.22;13.15;;;;;;;;;;5030220;28;20018;-85
2021/11/11 12:01:22;;;;;;;39.88;16.23;;;;;;;;;;5034385;28;20059;-85
2021/11/11 12:03:56;;;;;;;33.67;14.15;;;;;;;;;;5036086;28;20070;-85
2021/11/11 12:09:17;;;;;;;43.50;17.80;;;;;;;;;;5030538;28;20542;-82
2021/11/11 12:28:47;;;;;;;30.77;14.40;;;;;;;;;;5035762;28;20384;-82
2021/11/11 12:39:32;;;;;;;34.30;14.80;;;;;;;;;;5039294;28;20546;-83
2021/11/11 12:41:58;;;;;;;38.15;14.57;;;;;;;;;;5038642;28;20053;-82
2021/11/11 12:44:23;;;;;;;33.78;13.50;;;;;;;;;;5034298;28;20021;-82
2021/11/11 12:46:48;;;;;;;35.90;14.90;;;;;;;;;;5031267;28;20035;-83
2021/11/11 12:49:24;;;;;;;31.05;12.55;;;;;;;;;;5034167;28;20028;-83
2021/11/11 12:52:08;;;;;;;38.67;13.77;;;;;;;;;;5024979;28;20025;-83
2021/11/11 12:54:33;;;;;;;39.13;13.27;;;;;;;;;;5034046;28;20020;-83
2021/11/11 12:57:03;;;;;;;30.63;11.35;;;;;;;;;;5036807;28;20025;-83
2021/11/11 12:59:31;;;;;;;34.95;14.98;;;;;;;;;;5032249;28;20029;-83
2021/11/11 13:01:58;;;;;;;30.27;13.43;;;;;;;;;;5031167;28;20025;-82
2021/11/11 13:04:25;;;;;;;36.40;14.55;;;;;;;;;;5032025;28;20031;-82
2021/11/11 13:06:53;;;;;;;33.20;15.05;;;;;;;;;;5035930;28;20024;-82
2021/11/11 13:09:22;;;;;;;32.63;14.73;;;;;;;;;;5032833;28;20021;-83
2021/11/11 13:11:48;;;;;;;44.30;17.58;;;;;;;;;;5033122;28;20105;-82
2021/11/11 13:14:37;;;;;;;42.83;18.00;;;;;;;;;;5034147;28;20018;-82
2021/11/11 13:17:08;;;;;;;43.92;18.38;;;;;;;;;;5032287;28;20037;-82
2021/11/11 13:19:33;;;;;;;43.97;16.80;;;;;;;;;;5035259;28;20117;-82
2021/11/11 13:22:19;;;;;;;42.15;18.08;;;;;;;;;;5036629;28;20492;-82
2021/11/11 14:01:20;;;;;;;49.30;19.75;;;;;;;;;;5041032;28;20377;-82
2021/11/11 15:16:24;;;;;;;50.65;19.33;;;;;;;;;;5031178;28;20032;-81
2021/11/11 15:57:04;;;;;;;47.78;18.02;;;;;;;;;;5035142;28;20064;-81
2021/11/11 16:22:30;;;;;;;39.70;16.63;;;;;;;;;;5039949;28;20052;-81
2021/11/11 16:25:35;;;;;;;55.58;18.92;;;;;;;;;;5040490;28;20488;-81
2021/11/11 16:27:59;;;;;;;55.28;18.63;;;;;;;;;;5036668;28;20497;-81
2021/11/11 16:30:24;;;;;;;47.78;17.83;;;;;;;;;;5040866;28;20045;-82
2021/11/11 16:32:50;;;;;;;47.72;17.65;;;;;;;;;;5032819;28;20112;-82
2021/11/11 16:35:16;;;;;;;48.35;16.70;;;;;;;;;;5037927;28;20013;-82
2021/11/11 16:37:44;;;;;;;52.30;18.27;;;;;;;;;;5036264;28;20027;-82
2021/11/11 16:40:11;;;;;;;51.28;19.65;;;;;;;;;;5037158;28;20179;-82
2021/11/11 16:42:36;;;;;;;51.35;19.38;;;;;;;;;;5033902;28;20473;-81
2021/11/11 16:45:02;;;;;;;52.88;20.00;;;;;;;;;;5038606;28;20034;-82
2021/11/11 16:47:27;;;;;;;58.58;20.33;;;;;;;;;;5033958;28;20532;-82
2021/11/11 16:49:52;;;;;;;47.38;18.63;;;;;;;;;;5032888;28;20049;-82
2021/11/11 16:52:17;;;;;;;48.88;17.73;;;;;;;;;;5034454;28;20027;-82
2021/11/11 16:54:43;;;;;;;48.47;17.60;;;;;;;;;;5030314;28;20032;-82
2021/11/11 16:57:08;;;;;;;36.67;16.65;;;;;;;;;;5032289;28;20374;-81
2021/11/11 16:59:34;;;;;;;48.28;17.83;;;;;;;;;;5035266;28;20017;-81
2021/11/11 17:02:00;;;;;;;50.90;18.73;;;;;;;;;;5036260;28;20087;-81
2021/11/11 17:04:26;;;;;;;53.40;18.65;;;;;;;;;;5034063;28;20036;-82
2021/11/11 17:06:51;;;;;;;42.85;18.38;;;;;;;;;;5035244;28;20025;-82
2021/11/11 17:09:18;;;;;;;52.08;18.60;;;;;;;;;;5037333;28;20367;-82
2021/11/11 17:11:43;;;;;;;56.20;20.03;;;;;;;;;;5035695;28;20039;-82
2021/11/11 17:14:08;;;;;;;60.03;19.07;;;;;;;;;;5038031;28;20528;-81
2021/11/11 17:16:36;;;;;;;49.37;18.20;;;;;;;;;;5040376;28;20201;-81
2021/11/11 17:19:01;;;;;;;48.30;18.45;;;;;;;;;;5044835;28;20392;-81
2021/11/11 17:21:27;;;;;;;48.42;19.25;;;;;;;;;;5039082;28;20029;-81
2021/11/11 17:28:43;;;;;;;38.78;16.67;;;;;;;;;;5043991;28;20032;-81
2021/11/11 17:31:09;;;;;;;44.57;17.83;;;;;;;;;;5038543;28;20025;-81
2021/11/11 17:33:35;;;;;;;57.90;20.07;;;;;;;;;;5038905;28;20113;-81
2021/11/11 17:36:01;;;;;;;57.00;20.73;;;;;;;;;;5040756;28;20431;-81
2021/11/11 17:38:28;;;;;;;54.80;23.02;;;;;;;;;;5038643;28;20029;-81
2021/11/11 17:40:54;;;;;;;67.82;23.05;;;;;;;;;;5042261;28;20079;-81
2021/11/11 17:43:21;;;;;;;54.00;21.88;;;;;;;;;;5035570;28;20057;-81
2021/11/11 17:45:53;;;;;;;63.88;22.10;;;;;;;;;;5044184;28;20541;-82
2021/11/11 17:48:19;;;;;;;61.58;23.05;;;;;;;;;;5038584;28;20025;-81
2021/11/11 17:50:54;;;;;;;57.95;20.02;;;;;;;;;;5039069;28;20496;-81
2021/11/11 17:53:21;;;;;;;58.28;20.60;;;;;;;;;;5038868;28;20025;-82
2021/11/11 17:55:49;;;;;;;50.60;18.48;;;;;;;;;;5042000;28;20083;-82
2021/11/11 17:58:16;;;;;;;53.58;19.48;;;;;;;;;;5030439;28;20025;-82
2021/11/11 18:00:43;;;;;;;58.70;21.63;;;;;;;;;;5038828;28;20028;-81
2021/11/11 18:03:16;;;;;;;61.50;21.98;;;;;;;;;;5043696;28;20041;-81
2021/11/11 18:05:41;;;;;;;58.47;22.50;;;;;;;;;;5037954;28;20025;-81